createdAt,value
2023-01-29T00:00:14.502Z,101654.44
2023-01-29T00:03:03.204Z,101654.29
2023-01-29T00:05:31.557Z,101654.08
2023-01-29T00:07:59.567Z,101647.33
2023-01-29T00:10:27.589Z,101635.37
2023-01-29T00:12:55.644Z,101632.44
2023-01-29T00:15:23.759Z,101635.34
2023-01-29T00:17:51.793Z,101629.98
2023-01-29T00:20:20.075Z,101619.52
2023-01-29T00:22:48.169Z,101617.83
2023-01-29T00:25:16.179Z,101612.90
2023-01-29T00:27:44.601Z,101615.11
2023-01-29T00:30:13.227Z,101606.20
2023-01-29T00:32:41.933Z,101602.98
2023-01-29T00:35:10.409Z,101598.61
2023-01-29T00:37:38.565Z,101595.92
2023-01-29T00:40:07.446Z,101597.92
2023-01-29T00:42:54.237Z,101593.05
2023-01-29T00:45:22.219Z,101588.25
2023-01-29T00:47:50.710Z,101588.11
2023-01-29T00:50:18.997Z,101588.02
2023-01-29T00:52:49.664Z,101595.84
2023-01-29T00:55:17.910Z,101592.74
2023-01-29T00:57:46.385Z,101594.88
2023-01-29T01:00:18.719Z,101594.58
2023-01-29T01:03:05.452Z,101594.41
2023-01-29T01:05:34.107Z,101600.73
2023-01-29T01:08:02.194Z,101609.26
2023-01-29T01:10:33.017Z,101609.69
2023-01-29T01:13:05.384Z,101605.43
2023-01-29T01:15:39.532Z,101602.16
2023-01-29T01:18:07.807Z,101598.73
2023-01-29T01:20:36.768Z,101596.17
2023-01-29T01:23:05.199Z,101588.55
2023-01-29T01:25:33.791Z,101591.71
2023-01-29T01:28:02.160Z,101592.98
2023-01-29T01:30:30.205Z,101587.45
2023-01-29T01:32:58.236Z,101583.98
2023-01-29T01:35:26.204Z,101584.06
2023-01-29T01:37:54.212Z,101565.85
2023-01-29T01:40:25.622Z,101583.45
2023-01-29T01:42:58.448Z,101589.85
2023-01-29T01:45:35.260Z,101596.70
2023-01-29T01:48:15.392Z,101592.91
2023-01-29T01:50:50.700Z,101583.36
2023-01-29T01:53:43.672Z,101581.09
2023-01-29T01:56:19.643Z,101584.64
2023-01-29T01:58:54.321Z,101585.71
2023-01-29T02:01:30.472Z,101584.63
2023-01-29T02:04:36.700Z,101586.16
2023-01-29T02:07:26.495Z,101582.10
2023-01-29T02:10:16.145Z,101586.47
2023-01-29T02:12:46.149Z,101584.36
2023-01-29T02:15:14.458Z,101575.30
2023-01-29T02:17:46.040Z,101570.90
2023-01-29T02:20:27.394Z,101572.39
2023-01-29T02:23:23.279Z,101577.23
2023-01-29T02:26:09.402Z,101578.05
2023-01-29T02:29:22.529Z,101579.27
2023-01-29T02:32:15.274Z,101585.61
2023-01-29T02:35:26.077Z,101586.41
2023-01-29T02:38:22.553Z,101570.03
2023-01-29T02:40:57.964Z,101561.39
2023-01-29T02:43:35.402Z,101564.09
2023-01-29T02:46:27.465Z,101558.59
2023-01-29T02:49:26.177Z,101560.98
2023-01-29T02:52:26.323Z,101565.85
2023-01-29T02:55:15.875Z,101571.40
2023-01-29T02:57:47.161Z,101570.04
2023-01-29T03:00:24.778Z,101567.86
2023-01-29T03:03:01.115Z,101562.59
2023-01-29T03:05:43.339Z,101558.48
2023-01-29T03:08:16.721Z,101560.53
2023-01-29T03:10:56.460Z,101556.99
2023-01-29T03:13:41.229Z,101551.67
2023-01-29T03:16:48.604Z,101553.91
2023-01-29T03:19:44.939Z,101548.55
2023-01-29T03:22:23.376Z,101537.85
2023-01-29T03:25:16.221Z,101533.29
2023-01-29T03:28:11.085Z,101523.61
2023-01-29T03:31:18.740Z,101521.33
2023-01-29T03:34:00.347Z,101516.73
2023-01-29T03:36:39.897Z,101516.33
2023-01-29T03:39:11.427Z,101512.66
2023-01-29T03:42:18.684Z,101501.28
2023-01-29T03:45:07.784Z,101497.58
2023-01-29T03:47:54.547Z,101491.77
2023-01-29T03:50:59.224Z,101497.17
2023-01-29T03:54:04.979Z,101495.31
2023-01-29T03:56:49.179Z,101486.45
2023-01-29T03:59:41.322Z,101484.40
2023-01-29T04:02:41.174Z,101491.40
2023-01-29T04:05:19.577Z,101488.54
2023-01-29T04:08:15.197Z,101486.04
2023-01-29T04:10:47.255Z,101473.30
2023-01-29T04:13:17.844Z,101470.13
2023-01-29T04:15:54.317Z,101475.43
2023-01-29T04:18:28.445Z,101474.33
2023-01-29T04:21:11.481Z,101464.73
2023-01-29T04:23:39.506Z,101457.60
2023-01-29T04:26:29.222Z,101450.59
2023-01-29T04:29:32.120Z,101443.02
2023-01-29T04:32:07.564Z,101446.52
2023-01-29T04:35:10.459Z,101445.72
2023-01-29T04:38:07.274Z,101448.64
2023-01-29T04:41:05.544Z,101443.94
2023-01-29T04:44:21.904Z,101429.70
2023-01-29T04:47:04.019Z,101434.78
2023-01-29T04:49:50.120Z,101429.84
2023-01-29T04:52:49.191Z,101419.29
2023-01-29T04:55:47.691Z,101411.85
2023-01-29T04:58:35.950Z,101410.46
2023-01-29T05:01:08.500Z,101416.60
2023-01-29T05:03:39.358Z,101418.20
2023-01-29T05:06:10.857Z,101424.01
2023-01-29T05:08:41.037Z,101425.32
2023-01-29T05:11:10.034Z,101423.33
2023-01-29T05:13:42.417Z,101415.80
2023-01-29T05:16:42.917Z,101411.19
2023-01-29T05:19:16.076Z,101397.77
2023-01-29T05:21:48.119Z,101396.34
2023-01-29T05:24:22.786Z,101396.17
2023-01-29T05:27:12.479Z,101405.70
2023-01-29T05:29:47.412Z,101413.94
2023-01-29T05:32:16.612Z,101413.11
2023-01-29T05:34:44.692Z,101409.63
2023-01-29T05:37:12.701Z,101405.05
2023-01-29T05:39:40.660Z,101400.42
2023-01-29T05:42:20.479Z,101399.67
2023-01-29T05:44:48.622Z,101399.48
2023-01-29T05:47:20.704Z,101414.79
2023-01-29T05:49:48.664Z,101416.27
2023-01-29T05:52:16.614Z,101418.39
2023-01-29T05:54:44.604Z,101413.58
2023-01-29T05:57:12.570Z,101414.45
2023-01-29T05:59:40.513Z,101411.80
2023-01-29T06:02:08.740Z,101410.18
2023-01-29T06:04:37.070Z,101413.42
2023-01-29T06:07:05.150Z,101420.86
2023-01-29T06:09:33.106Z,101431.59
2023-01-29T06:12:01.095Z,101436.15
2023-01-29T06:14:29.048Z,101439.40
2023-01-29T06:16:57.037Z,101435.98
2023-01-29T06:19:25.235Z,101431.70
2023-01-29T06:21:53.162Z,101430.30
2023-01-29T06:24:21.168Z,101421.57
2023-01-29T06:26:49.237Z,101425.91
2023-01-29T06:29:17.172Z,101429.33
2023-01-29T06:31:45.194Z,101436.10
2023-01-29T06:34:13.394Z,101443.97
2023-01-29T06:36:41.935Z,101453.23
2023-01-29T06:39:10.193Z,101457.73
2023-01-29T06:41:38.165Z,101456.65
2023-01-29T06:44:06.113Z,101458.46
2023-01-29T06:46:34.406Z,101457.67
2023-01-29T06:49:02.526Z,101456.71
2023-01-29T06:51:30.550Z,101451.42
2023-01-29T06:53:58.527Z,101448.94
2023-01-29T06:56:26.597Z,101445.19
2023-01-29T06:58:54.585Z,101444.62
2023-01-29T07:01:35.036Z,101439.23
2023-01-29T07:04:04.582Z,101442.07
2023-01-29T07:06:34.032Z,101437.47
2023-01-29T07:09:04.284Z,101429.55
2023-01-29T07:11:35.004Z,101420.31
2023-01-29T07:14:04.511Z,101411.79
2023-01-29T07:16:32.914Z,101418.34
2023-01-29T07:19:01.465Z,101418.58
2023-01-29T07:21:29.521Z,101420.52
2023-01-29T07:23:57.567Z,101420.48
2023-01-29T07:26:25.682Z,101413.94
2023-01-29T07:28:53.934Z,101409.11
2023-01-29T07:31:22.868Z,101407.16
2023-01-29T07:33:50.841Z,101402.84
2023-01-29T07:36:18.902Z,101402.67
2023-01-29T07:38:51.579Z,101405.55
2023-01-29T07:41:19.872Z,101403.79
2023-01-29T07:43:48.561Z,101407.30
2023-01-29T07:46:16.640Z,101402.95
2023-01-29T07:48:44.792Z,101400.19
2023-01-29T07:51:12.787Z,101402.02
2023-01-29T07:53:40.882Z,101408.08
2023-01-29T07:56:08.964Z,101408.10
2023-01-29T07:58:36.983Z,101410.85
2023-01-29T08:01:07.683Z,101413.61
2023-01-29T08:03:36.228Z,101415.49
2023-01-29T08:06:04.719Z,101422.34
2023-01-29T08:08:32.960Z,101428.28
2023-01-29T08:11:03.154Z,101429.08
2023-01-29T08:13:31.938Z,101430.96
2023-01-29T08:16:04.685Z,101432.24
2023-01-29T08:18:32.689Z,101429.02
2023-01-29T08:21:02.062Z,101429.77
2023-01-29T08:23:30.425Z,101430.77
2023-01-29T08:25:58.518Z,101427.36
2023-01-29T08:28:26.908Z,101425.27
2023-01-29T08:30:55.272Z,101418.44
2023-01-29T08:33:38.063Z,101409.15
2023-01-29T08:36:08.689Z,101403.27
2023-01-29T08:38:37.093Z,101396.08
2023-01-29T08:41:05.863Z,101389.84
2023-01-29T08:43:36.871Z,101376.25
2023-01-29T08:46:05.781Z,101368.17
2023-01-29T08:48:34.897Z,101365.30
2023-01-29T08:51:04.651Z,101360.02
2023-01-29T08:53:33.296Z,101361.88
2023-01-29T08:56:01.568Z,101361.64
2023-01-29T08:58:29.654Z,101372.72
2023-01-29T09:01:05.812Z,101372.50
2023-01-29T09:03:33.971Z,101368.07
2023-01-29T09:06:02.568Z,101356.92
2023-01-29T09:08:30.585Z,101353.80
2023-01-29T09:11:00.307Z,101355.27
2023-01-29T09:13:28.359Z,101362.72
2023-01-29T09:16:00.655Z,101363.83
2023-01-29T09:18:30.059Z,101367.21
2023-01-29T09:20:58.560Z,101366.48
2023-01-29T09:23:26.664Z,101367.23
2023-01-29T09:25:54.653Z,101366.48
2023-01-29T09:28:23.363Z,101368.52
2023-01-29T09:30:51.994Z,101362.13
2023-01-29T09:33:20.064Z,101366.77
2023-01-29T09:35:48.173Z,101369.61
2023-01-29T09:38:16.318Z,101371.48
2023-01-29T09:41:30.568Z,101369.23
2023-01-29T09:44:11.832Z,101365.42
2023-01-29T09:46:47.839Z,101367.74
2023-01-29T09:49:32.629Z,101363.69
2023-01-29T09:52:12.114Z,101366.01
2023-01-29T09:54:57.019Z,101370.50
2023-01-29T09:57:41.863Z,101374.99
2023-01-29T10:00:24.566Z,101375.30
2023-01-29T10:03:08.620Z,101372.02
2023-01-29T10:06:19.327Z,101366.61
2023-01-29T10:09:32.049Z,101356.48
2023-01-29T10:12:38.753Z,101348.01
2023-01-29T10:15:42.233Z,101339.71
2023-01-29T10:18:23.939Z,101338.23
2023-01-29T10:21:20.392Z,101336.72
2023-01-29T10:23:59.275Z,101334.59
2023-01-29T10:26:29.257Z,101333.73
2023-01-29T10:29:01.975Z,101324.08
2023-01-29T10:31:40.324Z,101324.25
2023-01-29T10:34:45.740Z,101312.77
2023-01-29T10:37:24.557Z,101304.84
2023-01-29T10:39:52.595Z,101305.58
2023-01-29T10:42:34.002Z,101307.04
2023-01-29T10:45:43.549Z,101304.02
2023-01-29T10:48:39.788Z,101295.05
2023-01-29T10:51:33.974Z,101287.42
2023-01-29T10:54:30.228Z,101283.58
2023-01-29T10:57:36.919Z,101275.36
2023-01-29T11:00:22.972Z,101273.30
2023-01-29T11:02:52.673Z,101274.98
2023-01-29T11:05:35.189Z,101274.87
2023-01-29T11:08:16.312Z,101277.77
2023-01-29T11:11:12.836Z,101272.13
2023-01-29T11:14:08.880Z,101274.91
2023-01-29T11:16:46.790Z,101273.27
2023-01-29T11:19:16.368Z,101269.69
2023-01-29T11:21:52.613Z,101267.13
2023-01-29T11:24:20.618Z,101261.98
2023-01-29T11:26:51.888Z,101251.50
2023-01-29T11:29:41.285Z,101246.31
2023-01-29T11:32:35.995Z,101254.30
2023-01-29T11:35:23.560Z,101259.52
2023-01-29T11:37:51.964Z,101254.38
2023-01-29T11:40:20.004Z,101243.88
2023-01-29T11:42:49.135Z,101230.44
2023-01-29T11:45:20.047Z,101225.69
2023-01-29T11:47:59.618Z,101220.81
2023-01-29T11:50:33.682Z,101200.44
2023-01-29T11:53:03.376Z,101199.63
2023-01-29T11:55:49.949Z,101201.76
2023-01-29T11:58:27.716Z,101203.91
2023-01-29T12:00:58.197Z,101199.70
2023-01-29T12:03:40.028Z,101192.29
2023-01-29T12:06:31.789Z,101185.17
2023-01-29T12:09:02.584Z,101180.92
2023-01-29T12:11:34.568Z,101187.32
2023-01-29T12:14:20.332Z,101187.70
2023-01-29T12:17:17.302Z,101185.94
2023-01-29T12:20:04.726Z,101182.91
2023-01-29T12:23:46.830Z,101178.02
2023-01-29T12:26:38.876Z,101169.82
2023-01-29T12:29:30.847Z,101166.35
2023-01-29T12:32:34.107Z,101167.33
2023-01-29T12:35:21.120Z,101172.30
2023-01-29T12:38:02.513Z,101165.66
2023-01-29T12:41:17.530Z,101158.98
2023-01-29T12:43:51.252Z,101153.56
2023-01-29T12:46:46.309Z,101155.33
2023-01-29T12:49:24.351Z,101160.95
2023-01-29T12:52:07.661Z,101158.51
2023-01-29T12:54:42.342Z,101152.07
2023-01-29T12:57:21.888Z,101151.48
2023-01-29T13:00:00.991Z,101152.06
2023-01-29T13:02:38.550Z,101149.23
2023-01-29T13:05:25.736Z,101149.14
2023-01-29T13:08:39.407Z,101145.41
2023-01-29T13:11:37.793Z,101137.32
2023-01-29T13:14:29.629Z,101129.79
2023-01-29T13:17:11.103Z,101122.35
2023-01-29T13:19:45.522Z,101120.75
2023-01-29T13:22:22.100Z,101114.41
2023-01-29T13:25:03.691Z,101108.75
2023-01-29T13:27:35.341Z,101109.07
2023-01-29T13:30:05.436Z,101108.56
2023-01-29T13:32:36.155Z,101113.52
2023-01-29T13:35:12.997Z,101115.09
2023-01-29T13:37:48.864Z,101113.03
2023-01-29T13:40:26.977Z,101117.35
2023-01-29T13:42:59.872Z,101114.35
2023-01-29T13:45:45.738Z,101113.58
2023-01-29T13:48:37.932Z,101111.39
2023-01-29T13:51:15.709Z,101110.70
2023-01-29T13:53:52.114Z,101106.10
2023-01-29T13:56:43.159Z,101107.20
2023-01-29T13:59:53.075Z,101102.37
2023-01-29T14:02:30.180Z,101103.80
2023-01-29T14:05:30.290Z,101104.09
2023-01-29T14:08:15.107Z,101100.22
2023-01-29T14:10:46.605Z,101096.52
2023-01-29T14:13:23.669Z,101097.88
2023-01-29T14:15:57.603Z,101094.58
2023-01-29T14:18:28.274Z,101097.13
2023-01-29T14:21:21.844Z,101093.98
2023-01-29T14:23:54.974Z,101092.02
2023-01-29T14:26:38.578Z,101088.40
2023-01-29T14:29:14.536Z,101082.70
2023-01-29T14:32:03.445Z,101079.08
2023-01-29T14:34:44.015Z,101079.06
2023-01-29T14:37:14.873Z,101085.73
2023-01-29T14:39:57.573Z,101086.66
2023-01-29T14:42:39.197Z,101090.45
2023-01-29T14:45:28.229Z,101085.27
2023-01-29T14:48:03.171Z,101087.88
2023-01-29T14:50:34.737Z,101079.24
2023-01-29T14:53:24.175Z,101075.88
2023-01-29T14:56:03.426Z,101064.79
2023-01-29T14:58:45.055Z,101062.45
2023-01-29T15:01:35.216Z,101063.26
2023-01-29T15:04:13.119Z,101060.23
2023-01-29T15:06:52.958Z,101058.40
2023-01-29T15:09:40.955Z,101049.42
2023-01-29T15:12:50.987Z,101055.73
2023-01-29T15:15:50.168Z,101049.92
2023-01-29T15:18:33.176Z,101039.42
2023-01-29T15:21:19.993Z,101045.05
2023-01-29T15:23:49.006Z,101040.14
2023-01-29T15:26:26.930Z,101040.27
2023-01-29T15:29:04.161Z,101043.80
2023-01-29T15:31:35.166Z,101038.73
2023-01-29T15:34:07.555Z,101035.11
2023-01-29T15:36:37.147Z,101030.38
2023-01-29T15:39:23.923Z,101027.96
2023-01-29T15:42:15.606Z,101024.42
2023-01-29T15:44:47.034Z,101020.55
2023-01-29T15:47:15.537Z,101019.79
2023-01-29T15:49:46.368Z,101024.77
2023-01-29T15:52:24.514Z,101022.25
2023-01-29T15:54:53.036Z,101019.42
2023-01-29T15:57:30.621Z,101024.14
2023-01-29T15:59:59.011Z,101019.84
2023-01-29T16:02:41.696Z,101013.98
2023-01-29T16:05:18.876Z,101013.79
2023-01-29T16:07:48.528Z,101002.73
2023-01-29T16:10:28.158Z,101009.13
2023-01-29T16:12:58.096Z,100998.69
2023-01-29T16:15:38.146Z,100996.41
2023-01-29T16:18:28.711Z,101000.25
2023-01-29T16:21:00.864Z,100996.51
2023-01-29T16:23:36.708Z,100990.27
2023-01-29T16:26:15.515Z,100987.21
2023-01-29T16:28:45.286Z,100983.84
2023-01-29T16:31:21.003Z,100986.52
2023-01-29T16:33:50.067Z,100983.80
2023-01-29T16:36:25.209Z,100980.09
2023-01-29T16:38:59.870Z,100979.81
2023-01-29T16:41:35.918Z,100974.25
2023-01-29T16:44:38.207Z,100974.77
2023-01-29T16:47:20.410Z,100971.13
2023-01-29T16:49:55.515Z,100966.35
2023-01-29T16:52:28.186Z,100969.53
2023-01-29T16:55:19.767Z,100965.20
2023-01-29T16:57:53.928Z,100966.48
2023-01-29T17:00:26.766Z,100971.27
2023-01-29T17:02:59.447Z,100970.08
2023-01-29T17:05:34.905Z,100967.55
2023-01-29T17:08:04.455Z,100962.41
2023-01-29T17:10:33.614Z,100958.73
2023-01-29T17:13:17.491Z,100962.21
2023-01-29T17:15:46.895Z,100961.30
2023-01-29T17:18:25.316Z,100959.33
2023-01-29T17:20:53.557Z,100962.65
2023-01-29T17:23:22.733Z,100965.36
2023-01-29T17:25:51.820Z,100960.98
2023-01-29T17:28:19.829Z,100954.54
2023-01-29T17:31:00.345Z,100947.98
2023-01-29T17:33:37.384Z,100941.75
2023-01-29T17:36:06.235Z,100941.52
2023-01-29T17:38:34.716Z,100939.15
2023-01-29T17:41:28.455Z,100935.50
2023-01-29T17:43:56.580Z,100935.81
2023-01-29T17:46:27.875Z,100931.15
2023-01-29T17:48:55.831Z,100926.58
2023-01-29T17:51:25.039Z,100928.58
2023-01-29T17:53:53.248Z,100927.59
2023-01-29T17:56:29.490Z,100922.54
2023-01-29T17:58:57.491Z,100918.50
2023-01-29T18:01:25.676Z,100912.10
2023-01-29T18:03:53.854Z,100913.89
2023-01-29T18:06:28.874Z,100910.42
2023-01-29T18:08:57.388Z,100917.12
2023-01-29T18:11:26.264Z,100914.60
2023-01-29T18:13:55.588Z,100914.46
2023-01-29T18:16:24.869Z,100907.67
2023-01-29T18:18:53.455Z,100902.55
2023-01-29T18:21:22.731Z,100905.29
2023-01-29T18:23:50.894Z,100897.91
2023-01-29T18:26:19.229Z,100893.48
2023-01-29T18:28:47.222Z,100898.08
2023-01-29T18:31:15.279Z,100886.23
2023-01-29T18:33:44.452Z,100883.66
2023-01-29T18:36:15.586Z,100880.48
2023-01-29T18:38:43.601Z,100873.13
2023-01-29T18:41:11.931Z,100870.35
2023-01-29T18:43:42.962Z,100854.02
2023-01-29T18:46:13.099Z,100850.59
2023-01-29T18:48:42.793Z,100852.45
2023-01-29T18:51:11.092Z,100853.89
2023-01-29T18:53:49.432Z,100852.79
2023-01-29T18:56:19.027Z,100852.47
2023-01-29T18:58:52.155Z,100846.83
2023-01-29T19:01:24.178Z,100841.81
2023-01-29T19:03:56.392Z,100839.16
2023-01-29T19:06:24.508Z,100836.35
2023-01-29T19:08:55.225Z,100831.65
2023-01-29T19:11:23.267Z,100834.60
2023-01-29T19:13:52.913Z,100835.73
2023-01-29T19:16:21.365Z,100828.65
2023-01-29T19:18:49.463Z,100821.16
2023-01-29T19:21:17.748Z,100823.89
2023-01-29T19:23:45.866Z,100827.88
2023-01-29T19:26:14.721Z,100821.05
2023-01-29T19:28:43.282Z,100818.05
2023-01-29T19:31:11.492Z,100816.52
2023-01-29T19:33:39.708Z,100816.52
2023-01-29T19:36:13.175Z,100813.02
2023-01-29T19:38:41.741Z,100811.46
2023-01-29T19:41:09.878Z,100808.85
2023-01-29T19:43:43.011Z,100809.05
2023-01-29T19:46:12.085Z,100805.70
2023-01-29T19:48:42.101Z,100800.69
2023-01-29T19:51:12.132Z,100799.94
2023-01-29T19:53:45.312Z,100795.77
2023-01-29T19:56:17.493Z,100794.30
2023-01-29T19:58:47.092Z,100789.95
2023-01-29T20:01:19.937Z,100791.30
2023-01-29T20:03:49.591Z,100783.55
2023-01-29T20:06:33.582Z,100777.83
2023-01-29T20:09:04.751Z,100773.50
2023-01-29T20:11:33.242Z,100767.26
2023-01-29T20:14:01.543Z,100762.58
2023-01-29T20:16:30.007Z,100761.30
2023-01-29T20:19:14.290Z,100766.36
2023-01-29T20:21:46.834Z,100765.39
2023-01-29T20:24:14.877Z,100763.25
2023-01-29T20:26:42.919Z,100760.72
2023-01-29T20:29:11.463Z,100756.05
2023-01-29T20:31:39.443Z,100751.27
2023-01-29T20:34:07.445Z,100747.67
2023-01-29T20:36:35.430Z,100740.45
2023-01-29T20:39:03.991Z,100732.16
2023-01-29T20:41:31.954Z,100728.86
2023-01-29T20:44:00.107Z,100723.75
2023-01-29T20:46:28.404Z,100719.96
2023-01-29T20:48:56.537Z,100710.91
2023-01-29T20:51:24.532Z,100705.02
2023-01-29T20:53:52.691Z,100697.79
2023-01-29T20:56:38.038Z,100699.05
2023-01-29T20:59:09.308Z,100690.43
2023-01-29T21:01:37.498Z,100684.15
2023-01-29T21:04:05.478Z,100678.19
2023-01-29T21:06:33.511Z,100672.19
2023-01-29T21:09:01.461Z,100673.84
2023-01-29T21:11:29.465Z,100666.15
2023-01-29T21:13:57.671Z,100667.19
2023-01-29T21:16:26.236Z,100659.44
2023-01-29T21:18:58.430Z,100652.64
2023-01-29T21:21:27.267Z,100659.48
2023-01-29T21:23:55.361Z,100650.20
2023-01-29T21:26:23.581Z,100646.07
2023-01-29T21:28:51.597Z,100649.89
2023-01-29T21:31:19.771Z,100642.92
2023-01-29T21:33:47.821Z,100640.72
2023-01-29T21:36:16.048Z,100634.04
2023-01-29T21:38:44.339Z,100628.50
2023-01-29T21:41:12.617Z,100626.11
2023-01-29T21:43:44.744Z,100616.66
2023-01-29T21:46:13.103Z,100609.89
2023-01-29T21:48:48.922Z,100606.41
2023-01-29T21:51:19.011Z,100601.57
2023-01-29T21:53:49.328Z,100602.27
2023-01-29T21:56:19.625Z,100600.96
2023-01-29T21:58:48.782Z,100603.11
2023-01-29T22:01:37.571Z,100598.88
2023-01-29T22:04:07.668Z,100591.70
2023-01-29T22:06:35.721Z,100587.64
2023-01-29T22:09:03.820Z,100584.65
2023-01-29T22:11:31.940Z,100585.90
2023-01-29T22:13:59.955Z,100573.55
2023-01-29T22:16:29.784Z,100567.87
2023-01-29T22:18:58.908Z,100561.36
2023-01-29T22:21:27.265Z,100558.52
2023-01-29T22:23:55.275Z,100554.33
2023-01-29T22:26:23.300Z,100549.04
2023-01-29T22:28:51.223Z,100537.55
2023-01-29T22:31:19.211Z,100529.80
2023-01-29T22:33:47.335Z,100520.69
2023-01-29T22:36:15.290Z,100510.52
2023-01-29T22:38:43.348Z,100510.80
2023-01-29T22:41:12.263Z,100512.46
2023-01-29T22:43:41.112Z,100503.11
2023-01-29T22:46:10.406Z,100498.85
2023-01-29T22:48:41.463Z,100494.70
2023-01-29T22:51:10.332Z,100484.23
2023-01-29T22:53:53.828Z,100484.28
2023-01-29T22:56:27.635Z,100477.06
2023-01-29T22:58:58.788Z,100474.92
2023-01-29T23:01:30.604Z,100468.86
2023-01-29T23:03:58.762Z,100457.09
2023-01-29T23:06:26.774Z,100450.59
2023-01-29T23:08:55.028Z,100449.17
2023-01-29T23:11:23.854Z,100447.23
2023-01-29T23:13:58.570Z,100440.77
2023-01-29T23:16:28.365Z,100432.27
2023-01-29T23:18:57.011Z,100425.09
2023-01-29T23:21:29.815Z,100414.30
2023-01-29T23:24:11.799Z,100408.05
2023-01-29T23:26:58.759Z,100397.15
2023-01-29T23:29:27.248Z,100392.41
2023-01-29T23:31:55.412Z,100380.11
2023-01-29T23:34:23.952Z,100375.59
2023-01-29T23:36:52.028Z,100370.39
2023-01-29T23:39:20.652Z,100377.77
2023-01-29T23:41:48.748Z,100376.52
2023-01-29T23:44:17.060Z,100376.16
2023-01-29T23:46:45.361Z,100364.25
2023-01-29T23:49:13.574Z,100352.16
2023-01-29T23:51:41.618Z,100346.91
2023-01-29T23:54:09.872Z,100344.60
2023-01-29T23:56:37.834Z,100345.13
2023-01-29T23:59:05.969Z,100340.06
